createdAt,value
2023-03-06T08:08:08.637Z,3.30
2023-03-06T08:13:24.591Z,3.50
2023-03-06T08:18:58.486Z,3.70
2023-03-06T08:21:29.050Z,3.80
2023-03-06T08:23:56.877Z,3.90
2023-03-06T08:26:29.659Z,3.90
2023-03-06T08:29:01.426Z,4.00
2023-03-06T08:31:41.350Z,4.10
2023-03-06T08:34:16.216Z,4.10
2023-03-06T08:36:43.986Z,4.20
2023-03-06T08:39:12.213Z,4.30
2023-03-06T08:41:42.276Z,4.40
2023-03-06T08:44:10.991Z,4.40
2023-03-06T08:46:38.721Z,4.40
2023-03-06T08:49:06.229Z,4.50
2023-03-06T08:51:33.818Z,4.60
2023-03-06T08:54:01.257Z,4.60
2023-03-06T08:56:33.915Z,4.70
2023-03-06T08:59:05.716Z,4.70
2023-03-06T09:01:37.837Z,4.80
2023-03-06T09:04:11.679Z,4.80
2023-03-06T09:06:42.973Z,4.90
2023-03-06T09:09:10.943Z,5.00
2023-03-06T09:11:39.574Z,5.00
2023-03-06T09:14:07.422Z,5.00
2023-03-06T09:16:34.810Z,5.00
2023-03-06T09:19:02.337Z,5.10
2023-03-06T09:21:29.962Z,5.10
2023-03-06T09:23:57.450Z,5.10
2023-03-06T09:26:39.557Z,5.20
2023-03-06T09:29:12.676Z,5.10
2023-03-06T09:31:40.029Z,5.10
2023-03-06T09:34:07.340Z,5.30
2023-03-06T09:36:49.295Z,5.30
2023-03-06T09:39:21.016Z,5.30
2023-03-06T09:41:49.887Z,5.30
2023-03-06T09:44:32.129Z,5.30
2023-03-06T09:48:07.682Z,5.30
2023-03-06T09:51:09.363Z,5.20
2023-03-06T09:54:12.774Z,5.10
2023-03-06T09:56:48.837Z,5.20
2023-03-06T09:59:26.087Z,5.20
2023-03-06T10:02:45.972Z,5.30
2023-03-06T10:05:34.987Z,5.40
2023-03-06T10:08:58.030Z,5.40
2023-03-06T10:11:42.821Z,5.50
2023-03-06T10:14:48.418Z,5.50
2023-03-06T10:17:24.164Z,5.50
2023-03-06T10:19:52.458Z,5.50
2023-03-06T10:22:48.037Z,5.50
2023-03-06T10:25:53.604Z,5.50
2023-03-06T10:29:01.392Z,5.50
2023-03-06T10:31:29.371Z,5.60
2023-03-06T10:34:28.551Z,5.50
2023-03-06T10:37:16.946Z,5.50
2023-03-06T10:39:44.335Z,5.50
2023-03-06T10:42:12.186Z,5.40
2023-03-06T10:44:39.528Z,5.40
2023-03-06T10:47:36.906Z,5.50
2023-03-06T10:50:30.713Z,5.50
2023-03-06T10:53:20.023Z,5.50
2023-03-06T10:56:00.401Z,5.50
2023-03-06T10:58:32.939Z,5.50
2023-03-06T11:01:21.954Z,5.60
2023-03-06T11:03:49.897Z,5.60
2023-03-06T11:06:37.743Z,5.60
2023-03-06T11:09:25.835Z,5.50
2023-03-06T11:12:13.476Z,5.50
2023-03-06T11:14:40.985Z,5.50
2023-03-06T11:17:30.918Z,5.40
2023-03-06T11:20:52.095Z,5.40
2023-03-06T11:23:46.638Z,5.40
2023-03-06T11:26:57.854Z,5.50
2023-03-06T11:29:44.981Z,5.60
2023-03-06T11:32:23.449Z,5.60
2023-03-06T11:35:12.317Z,5.50
2023-03-06T11:38:16.859Z,5.50
2023-03-06T11:40:56.002Z,5.40
2023-03-06T11:43:44.652Z,5.50
2023-03-06T11:46:38.364Z,5.50
2023-03-06T11:49:51.717Z,5.50
2023-03-06T11:52:47.666Z,5.60
2023-03-06T11:55:47.514Z,5.50
2023-03-06T11:58:35.424Z,5.40
2023-03-06T12:01:50.193Z,5.40
2023-03-06T12:05:47.052Z,5.40
2023-03-06T12:08:54.213Z,5.50
2023-03-06T12:11:46.160Z,5.50
2023-03-06T12:15:16.451Z,5.50
2023-03-06T12:18:50.573Z,5.70
2023-03-06T12:22:21.924Z,5.80
2023-03-06T12:25:45.056Z,5.80
2023-03-06T12:29:09.735Z,5.80
2023-03-06T12:32:25.534Z,5.90
2023-03-06T12:36:14.126Z,6.00
2023-03-06T12:39:16.065Z,6.10
2023-03-06T12:42:24.148Z,6.30
2023-03-06T12:45:36.965Z,6.50
2023-03-06T12:48:26.660Z,6.80
2023-03-06T12:50:55.124Z,6.90
2023-03-06T12:53:30.902Z,7.10
2023-03-06T12:56:01.945Z,7.10
2023-03-06T12:58:29.164Z,7.10
2023-03-06T13:01:40.559Z,7.20
2023-03-06T13:05:05.021Z,7.20
2023-03-06T13:08:34.771Z,7.30
2023-03-06T13:11:58.846Z,7.30
2023-03-06T13:14:42.287Z,7.40
2023-03-06T13:17:25.795Z,7.30
2023-03-06T13:20:14.791Z,7.30
2023-03-06T13:22:47.881Z,7.20
2023-03-06T13:25:21.341Z,7.20
2023-03-06T13:28:21.712Z,7.10
2023-03-06T13:30:50.475Z,7.00
2023-03-06T13:33:30.075Z,7.10
2023-03-06T13:36:28.503Z,7.10
2023-03-06T13:39:11.866Z,7.10
2023-03-06T13:42:07.210Z,7.10
2023-03-06T13:44:43.516Z,7.10
2023-03-06T13:50:47.828Z,7.10
2023-03-06T13:54:48.662Z,7.10
2023-03-06T13:58:43.180Z,7.20
2023-03-06T14:01:55.888Z,7.30
2023-03-06T14:04:50.540Z,7.30
2023-03-06T14:07:35.734Z,7.30
2023-03-06T14:10:23.945Z,7.30
2023-03-06T14:12:51.242Z,7.20
2023-03-06T14:15:44.493Z,7.20
2023-03-06T14:18:44.125Z,7.20
2023-03-06T14:21:15.923Z,7.20
2023-03-06T14:23:45.935Z,7.10
2023-03-06T14:26:22.253Z,7.00
2023-03-06T14:28:52.460Z,7.00
2023-03-06T14:31:30.339Z,6.90
2023-03-06T14:34:01.418Z,6.90
2023-03-06T14:36:51.314Z,7.00
2023-03-06T14:39:40.430Z,7.00
2023-03-06T14:42:22.198Z,7.00
2023-03-06T14:45:18.900Z,7.10
2023-03-06T14:47:53.498Z,7.20
2023-03-06T14:50:34.025Z,7.20
2023-03-06T14:53:16.197Z,7.30
2023-03-06T14:56:06.250Z,7.30
2023-03-06T14:59:05.963Z,7.20
2023-03-06T15:01:45.431Z,7.20
2023-03-06T15:04:45.885Z,7.20
2023-03-06T15:07:34.291Z,7.20
2023-03-06T15:10:02.084Z,7.20
2023-03-06T15:12:33.968Z,7.20
2023-03-06T15:15:08.080Z,7.10
2023-03-06T15:17:46.292Z,7.10
2023-03-06T15:20:53.584Z,7.10
2023-03-06T15:23:41.377Z,7.00
2023-03-06T15:26:34.791Z,7.20
2023-03-06T15:29:11.192Z,7.30
2023-03-06T15:31:46.780Z,7.30
2023-03-06T15:34:25.569Z,7.30
2023-03-06T15:36:58.110Z,7.50
2023-03-06T15:39:41.420Z,7.60
2023-03-06T15:42:20.276Z,7.60
2023-03-06T15:45:00.027Z,7.40
2023-03-06T15:47:27.344Z,7.50
2023-03-06T15:49:55.315Z,7.50
2023-03-06T15:52:23.403Z,7.50
2023-03-06T15:54:50.907Z,7.40
2023-03-06T15:57:29.418Z,7.30
2023-03-06T15:59:58.823Z,7.30
2023-03-06T16:02:26.305Z,7.30
2023-03-06T16:04:53.791Z,7.30
2023-03-06T16:07:21.222Z,7.20
2023-03-06T16:09:48.692Z,7.30
2023-03-06T16:12:22.658Z,7.40
2023-03-06T16:14:50.235Z,7.50
2023-03-06T16:17:17.943Z,7.60
2023-03-06T16:19:45.455Z,7.60
2023-03-06T16:22:13.701Z,7.50
2023-03-06T16:24:41.911Z,7.30
2023-03-06T16:27:23.437Z,7.30
2023-03-06T16:29:50.732Z,7.30
2023-03-06T16:32:18.072Z,7.20
2023-03-06T16:34:45.409Z,7.00
2023-03-06T16:37:14.225Z,7.00
2023-03-06T16:39:41.694Z,7.00
2023-03-06T16:42:08.999Z,7.10
2023-03-06T16:44:36.435Z,7.10
2023-03-06T16:47:03.844Z,7.10
2023-03-06T16:49:31.331Z,7.10
2023-03-06T16:51:58.628Z,7.00
2023-03-06T16:54:26.250Z,7.10
2023-03-06T16:56:53.662Z,7.10
2023-03-06T16:59:21.061Z,7.10
2023-03-06T17:01:48.511Z,7.10
2023-03-06T17:04:15.871Z,7.10
2023-03-06T17:06:43.251Z,7.20
2023-03-06T17:09:10.970Z,7.10
2023-03-06T17:11:43.416Z,7.10
2023-03-06T17:14:10.712Z,7.10
2023-03-06T17:16:40.273Z,7.00
2023-03-06T17:19:08.696Z,7.00
2023-03-06T17:21:38.358Z,7.00
2023-03-06T17:24:06.559Z,7.10
2023-03-06T17:26:37.011Z,7.10
2023-03-06T17:29:06.968Z,7.10
2023-03-06T17:31:34.431Z,7.00
2023-03-06T17:34:01.802Z,6.90
2023-03-06T17:36:32.139Z,6.90
2023-03-06T17:39:02.974Z,6.90
2023-03-06T17:41:32.761Z,6.90
2023-03-06T17:44:01.675Z,6.90
2023-03-06T17:46:29.426Z,6.80
2023-03-06T17:48:56.790Z,6.80
2023-03-06T17:51:24.187Z,6.80
2023-03-06T17:53:52.284Z,6.80
2023-03-06T17:56:19.769Z,6.80
2023-03-06T17:58:47.603Z,6.80
2023-03-06T18:01:22.066Z,6.70
2023-03-06T18:03:51.483Z,6.70
2023-03-06T18:06:22.126Z,6.70
2023-03-06T18:08:52.279Z,6.70
2023-03-06T18:11:21.166Z,6.70
2023-03-06T18:13:49.384Z,6.70
2023-03-06T18:16:23.005Z,6.70
2023-03-06T18:18:56.547Z,6.70
2023-03-06T18:21:26.344Z,6.50
2023-03-06T18:23:53.983Z,6.50
2023-03-06T18:26:30.085Z,6.50
2023-03-06T18:29:04.341Z,6.50
2023-03-06T18:31:39.356Z,6.60
2023-03-06T18:34:17.829Z,6.60
2023-03-06T18:36:47.298Z,6.70
2023-03-06T18:39:15.780Z,6.70
2023-03-06T18:41:43.200Z,6.70
2023-03-06T18:44:16.285Z,6.70
2023-03-06T18:46:43.999Z,6.70
2023-03-06T18:49:13.758Z,6.70
2023-03-06T18:51:41.930Z,6.80
2023-03-06T18:54:10.608Z,6.80
2023-03-06T18:56:39.363Z,6.70
2023-03-06T18:59:07.364Z,6.70
2023-03-06T19:01:35.553Z,6.70
2023-03-06T19:04:05.583Z,6.70
2023-03-06T19:06:32.955Z,6.60
2023-03-06T19:09:01.753Z,6.60
2023-03-06T19:11:29.640Z,6.70
2023-03-06T19:13:57.127Z,6.70
2023-03-06T19:16:29.808Z,6.70
2023-03-06T19:18:57.850Z,6.70
2023-03-06T19:21:28.272Z,6.70
2023-03-06T19:23:57.253Z,6.70
2023-03-06T19:26:25.344Z,6.60
2023-03-06T19:28:52.634Z,6.60
2023-03-06T19:31:28.114Z,6.60
2023-03-06T19:33:57.197Z,6.60
2023-03-06T19:36:33.494Z,6.60
2023-03-06T19:39:05.877Z,6.60
2023-03-06T19:41:34.445Z,6.50
2023-03-06T19:44:03.390Z,6.50
2023-03-06T19:46:31.837Z,6.50
2023-03-06T19:49:06.421Z,6.50
2023-03-06T19:51:33.707Z,6.50
2023-03-06T19:54:01.036Z,6.40
2023-03-06T19:56:30.274Z,6.50
2023-03-06T19:58:57.815Z,6.40
2023-03-06T20:01:28.173Z,6.30
2023-03-06T20:04:00.154Z,6.30
2023-03-06T20:06:34.261Z,6.40
2023-03-06T20:09:07.481Z,6.40
2023-03-06T20:11:35.269Z,6.50
2023-03-06T20:14:07.115Z,6.50
2023-03-06T20:16:35.064Z,6.50
2023-03-06T20:19:03.442Z,6.60
2023-03-06T20:21:37.529Z,6.60
2023-03-06T20:24:09.244Z,6.60
2023-03-06T20:26:38.078Z,6.50
2023-03-06T20:29:05.395Z,6.50
2023-03-06T20:31:33.708Z,6.60
2023-03-06T20:34:01.167Z,6.40
2023-03-06T20:36:39.192Z,6.50
2023-03-06T20:39:16.794Z,6.40
2023-03-06T20:41:45.023Z,6.30
2023-03-06T20:44:19.341Z,6.30
2023-03-06T20:46:47.071Z,6.40
2023-03-06T20:49:14.953Z,6.40
2023-03-06T20:51:43.252Z,6.40
2023-03-06T20:54:16.305Z,6.40
2023-03-06T20:56:48.946Z,6.40
2023-03-06T20:59:16.514Z,6.40
2023-03-06T21:01:47.902Z,6.50
2023-03-06T21:04:15.816Z,6.40
2023-03-06T21:06:46.850Z,6.30
2023-03-06T21:09:17.154Z,6.40
2023-03-06T21:11:45.635Z,6.40
2023-03-06T21:14:14.312Z,6.30
2023-03-06T21:16:42.399Z,6.40
2023-03-06T21:19:10.817Z,6.40
2023-03-06T21:21:38.119Z,6.30
2023-03-06T21:24:05.838Z,6.30
2023-03-06T21:26:34.102Z,6.20
2023-03-06T21:29:03.014Z,6.30
2023-03-06T21:31:31.835Z,6.30
2023-03-06T21:34:02.508Z,6.30
2023-03-06T21:36:31.735Z,6.30
2023-03-06T21:38:59.094Z,6.30
2023-03-06T21:41:30.533Z,6.30
